KVCT/VCT METAR and TAF weather

Enter ICAO airport designator
Station Type Date Time Source
KVCT METAR 2021/07/30 05:51 UTC NOAA

KVCT 300551Z AUTO 00000KT 8SM CLR 26/24 A3001 RMK AO2 SLP160 T02560244 10300 20250 403560244 58000


Station Type Date Time Source
KVCT Decoded METAR 2021/07/30 05:51 UTC NOAA

VICTORIA REGIONAL AIRPORT, TX, United States (KVCT) 28-52N 96-56W 31M
Jul 30, 2021 - 01:51 AM EDT / 2021.07.30 0551 UTC
Wind: Calm:0
Visibility: 8 mile(s):0
Sky conditions: clear
Temperature: 78.1 F (25.6 C)
Dew Point: 75.9 F (24.4 C)
Relative Humidity: 93%
Pressure (altimeter): 30.01 in. Hg (1016 hPa)
Pressure tendency: 0.00 inches (0.0 hPa) lower than three hours ago
ob: KVCT 300551Z AUTO 00000KT 8SM CLR 26/24 A3001 RMK AO2 SLP160 T02560244 10300 20250 403560244 58000
cycle: 6

Station Type Date Time Source
KVCT TAF 2021/07/30 06:33 UTC NOAA

TAF KVCT 300530Z 3006/3106 03003KT P6SM FEW250
FM300900 VRB03KT 6SM BR SCT025
TEMPO 3009/3012 3SM BR BKN020
FM301500 VRB04KT P6SM SCT025 BKN250 PROB30 3017/3022 P6SM -RA BKN025

Example: see airport list